Terminal Aerodrome Forecast
Issued by NWS

Home | Current Version | Previous Version | Text Only | Print | Product List | Glossary On
Versions: 1 2 3 4 5 6 7 8 9 10 11 12 13 14 15 16 17 18 19 20 21 22
000
FTUS44 KLZK 292357
TAFHRO
TAF
KHRO 292357Z 3000/3024 15008G18KT 6SM -TSRA SCT015 OVC040CB
      TEMPO 3000/3003 3SM TSRA BR OVC015CB
     FM300300 16010G20KT 6SM BR VCTS BKN025 OVC050CB
     FM300600 17010KT 4SM SHRA VCTS BKN012 OVC025CB
     FM301400 18012G22KT 6SM -RA BKN025 OVC050
     FM301800 19015G25KT P6SM BKN050=

USA.gov is the U.S. government's official web portal to all federal, state and local government web resources and services.